Martin Challenger — WDB2346 — position and weather

sailwx.info

Track history (hours):
 
Tides and Currents Weather Stations Pressure Air Temp Water Temp Dewpoint Dewpoint Depression Visibility Wind Speed Wind Dir Waves Ship Positions

Martin Challenger

Owner: MARTIN OPERATING PARTNERSHIP LP, VIDOR, TX. More information available from US FCC via Universal Licensing System and Coast Guard Vessel Documentation Center.

Last reported at 2017-Mar-28 23:13 UTC. Time now 2017-Mar-29 09:10 UTC.
Position N 29°44' W 095°01'.

Length 20 m.

MMSI: 366874920.

Date/timePositionNaut miles runAvg speedWind from/ knotsBaromVisibWave heightAir tempDewpointWater temp
2017-Mar-28 23:13N 29°44' W 095°01'0 0.0
2017-Mar-28 22:33N 29°44' W 095°01'0 0.0
2017-Mar-28 21:33N 29°44' W 095°01'0 0.0
2017-Mar-28 20:33N 29°44' W 095°01'0 0.0
2017-Mar-28 19:33N 29°44' W 095°01'0 0.0
2017-Mar-28 18:33N 29°44' W 095°01'0 0.0
2017-Mar-28 17:33N 29°44' W 095°01'0 0.0
2017-Mar-28 16:33N 29°44' W 095°01'0 0.0
2017-Mar-28 15:33N 29°44' W 095°01'3 2.5
2017-Mar-28 14:31N 29°45' W 095°04'2 1.8
2017-Mar-28 13:29N 29°47' W 095°05'4 1.9
2017-Mar-28 11:22N 29°44' W 095°01'0 0.0
2017-Mar-28 08:17N 29°44' W 095°01'0 0.0
2017-Mar-28 06:33N 29°44' W 095°01'0 0.0
2017-Mar-28 05:33N 29°44' W 095°01'2 2.2
2017-Mar-28 04:32N 29°42' W 095°00'5 5.0
2017-Mar-28 03:33N 29°38' W 094°58'6 6.0
2017-Mar-28 02:33N 29°32' W 094°54'  
Track history (hours):
 
Tides and Currents Weather Stations Pressure Air Temp Water Temp Dewpoint Dewpoint Depression Visibility Wind Speed Wind Dir Waves Ship Positions

Martin Challenger

Owner: MARTIN OPERATING PARTNERSHIP LP, VIDOR, TX. More information available from US FCC via Universal Licensing System and Coast Guard Vessel Documentation Center.

Last reported at 2017-Mar-28 23:13 UTC. Time now 2017-Mar-29 09:10 UTC.
Position N 29°44' W 095°01'.

Length 20 m.

MMSI: 366874920.

Date/timePositionNaut miles runAvg speedWind from/ knotsBaromVisibWave heightAir tempDewpointWater temp
2017-Mar-28 23:13N 29°44' W 095°01'0 0.0
2017-Mar-28 22:33N 29°44' W 095°01'0 0.0
2017-Mar-28 21:33N 29°44' W 095°01'0 0.0
2017-Mar-28 20:33N 29°44' W 095°01'0 0.0
2017-Mar-28 19:33N 29°44' W 095°01'0 0.0
2017-Mar-28 18:33N 29°44' W 095°01'0 0.0
2017-Mar-28 17:33N 29°44' W 095°01'0 0.0
2017-Mar-28 16:33N 29°44' W 095°01'0 0.0
2017-Mar-28 15:33N 29°44' W 095°01'3 2.5
2017-Mar-28 14:31N 29°45' W 095°04'2 1.8
2017-Mar-28 13:29N 29°47' W 095°05'4 1.9
2017-Mar-28 11:22N 29°44' W 095°01'0 0.0
2017-Mar-28 08:17N 29°44' W 095°01'0 0.0
2017-Mar-28 06:33N 29°44' W 095°01'0 0.0
2017-Mar-28 05:33N 29°44' W 095°01'2 2.2
2017-Mar-28 04:32N 29°42' W 095°00'5 5.0
2017-Mar-28 03:33N 29°38' W 094°58'6 6.0
2017-Mar-28 02:33N 29°32' W 094°54'  

Dump ship's entire track history